createdAt,value
2019-05-10T00:00:05.020Z,79.80
2019-05-10T00:01:05.254Z,79.90
2019-05-10T00:02:07.969Z,80.00
2019-05-10T00:03:04.970Z,80.00
2019-05-10T00:04:05.190Z,80.00
2019-05-10T00:05:05.305Z,79.90
2019-05-10T00:06:10.411Z,79.80
2019-05-10T00:07:05.462Z,79.80
2019-05-10T00:08:08.113Z,79.80
2019-05-10T00:09:07.773Z,79.70
2019-05-10T00:10:10.781Z,79.70
2019-05-10T00:11:05.759Z,79.70
2019-05-10T00:12:05.931Z,79.70
2019-05-10T00:13:07.609Z,79.60
2019-05-10T00:14:05.533Z,79.50
2019-05-10T00:15:08.109Z,79.40
2019-05-10T00:16:05.054Z,79.40
2019-05-10T00:17:05.201Z,79.40
2019-05-10T00:18:07.902Z,79.40
2019-05-10T00:19:08.369Z,79.40
2019-05-10T00:20:05.428Z,79.40
2019-05-10T00:21:08.190Z,79.40
2019-05-10T00:22:07.683Z,79.40
2019-05-10T00:23:05.653Z,79.30
2019-05-10T00:24:05.696Z,79.30
2019-05-10T00:25:05.935Z,79.30
2019-05-10T00:26:05.230Z,79.30
2019-05-10T00:27:07.897Z,79.30
2019-05-10T00:28:10.863Z,79.30
2019-05-10T00:29:05.806Z,79.30
2019-05-10T00:30:08.552Z,79.30
2019-05-10T00:31:05.555Z,79.30
2019-05-10T00:32:05.631Z,79.30
2019-05-10T00:33:08.238Z,79.30
2019-05-10T00:34:05.277Z,79.40
2019-05-10T00:35:07.876Z,79.30
2019-05-10T00:36:10.932Z,79.30
2019-05-10T00:37:06.090Z,79.30
2019-05-10T00:38:05.179Z,79.30
2019-05-10T00:39:07.951Z,79.30
2019-05-10T00:40:08.602Z,79.30
2019-05-10T00:41:08.105Z,79.30
2019-05-10T00:42:05.038Z,79.30
2019-05-10T00:43:07.736Z,79.30
2019-05-10T00:44:08.215Z,79.20
2019-05-10T00:45:07.827Z,79.10
2019-05-10T00:46:08.355Z,79.30
2019-05-10T00:47:05.338Z,79.10
2019-05-10T00:48:05.428Z,79.30
2019-05-10T00:49:05.513Z,79.10
2019-05-10T00:50:05.550Z,79.10
2019-05-10T00:51:08.252Z,79.10
2019-05-10T00:52:07.847Z,79.10
2019-05-10T00:53:08.386Z,79.10
2019-05-10T00:54:05.493Z,79.10
2019-05-10T00:55:19.562Z,79.10
2019-05-10T00:56:08.188Z,79.10
2019-05-10T00:57:07.670Z,79.10
2019-05-10T00:58:05.761Z,79.10
2019-05-10T00:59:08.389Z,79.10
2019-05-10T01:00:05.415Z,79.10
2019-05-10T01:01:05.703Z,79.10
2019-05-10T01:02:08.406Z,79.10
2019-05-10T01:03:08.043Z,79.10
2019-05-10T01:04:07.509Z,79.10
2019-05-10T01:05:08.169Z,79.10
2019-05-10T01:06:05.487Z,79.00
2019-05-10T01:07:05.579Z,79.00
2019-05-10T01:08:05.760Z,79.00
2019-05-10T01:09:05.929Z,79.00
2019-05-10T01:10:07.638Z,79.10
2019-05-10T01:11:05.744Z,79.10
2019-05-10T01:12:05.872Z,79.10
2019-05-10T01:13:05.192Z,79.10
2019-05-10T01:14:08.016Z,79.10
2019-05-10T01:15:06.130Z,79.10
2019-05-10T01:16:05.279Z,79.10
2019-05-10T01:17:05.597Z,79.20
2019-05-10T01:18:05.701Z,79.30
2019-05-10T01:19:08.394Z,79.20
2019-05-10T01:20:07.831Z,79.10
2019-05-10T01:21:08.284Z,79.10
2019-05-10T01:22:05.220Z,79.30
2019-05-10T01:23:15.617Z,79.10
2019-05-10T01:24:08.311Z,79.20
2019-05-10T01:25:07.858Z,79.30
2019-05-10T01:26:05.900Z,79.30
2019-05-10T01:27:05.051Z,79.30
2019-05-10T01:28:10.185Z,79.20
2019-05-10T01:29:07.656Z,79.30
2019-05-10T01:30:08.130Z,79.10
2019-05-10T01:31:05.133Z,79.20
2019-05-10T01:32:07.843Z,79.10
2019-05-10T01:33:05.849Z,79.10
2019-05-10T01:34:10.952Z,79.10
2019-05-10T01:35:06.113Z,79.10
2019-05-10T01:36:05.262Z,79.00
2019-05-10T01:37:05.528Z,79.00
2019-05-10T01:38:08.048Z,79.00
2019-05-10T01:39:05.086Z,79.00
2019-05-10T01:40:05.185Z,79.00
2019-05-10T01:41:05.621Z,78.90
2019-05-10T01:42:08.240Z,78.90
2019-05-10T01:43:05.146Z,78.80
2019-05-10T01:44:05.245Z,78.90
2019-05-10T01:45:05.611Z,78.80
2019-05-10T01:46:05.920Z,78.80
2019-05-10T01:47:05.033Z,78.80
2019-05-10T01:48:12.744Z,78.90
2019-05-10T01:49:05.821Z,78.90
2019-05-10T01:50:08.408Z,78.90
2019-05-10T01:51:05.349Z,78.90
2019-05-10T01:52:05.371Z,78.90
2019-05-10T01:53:05.519Z,78.80
2019-05-10T01:54:05.643Z,78.80
2019-05-10T01:55:05.816Z,78.80
2019-05-10T01:56:05.841Z,78.70
2019-05-10T01:57:08.497Z,78.70
2019-05-10T01:58:05.605Z,78.70
2019-05-10T01:59:08.249Z,78.80
2019-05-10T02:00:07.782Z,78.80
2019-05-10T02:01:05.738Z,78.80
2019-05-10T02:02:05.806Z,78.70
2019-05-10T02:03:08.477Z,78.80
2019-05-10T02:04:05.709Z,78.80
2019-05-10T02:05:08.389Z,78.80
2019-05-10T02:06:08.003Z,78.80
2019-05-10T02:07:05.935Z,78.80
2019-05-10T02:08:04.949Z,78.80
2019-05-10T02:09:07.502Z,78.80
2019-05-10T02:10:05.490Z,78.80
2019-05-10T02:11:08.197Z,78.70
2019-05-10T02:12:05.182Z,78.70
2019-05-10T02:13:07.845Z,78.70
2019-05-10T02:14:08.330Z,78.70
2019-05-10T02:15:05.302Z,78.70
2019-05-10T02:16:05.353Z,78.70
2019-05-10T02:17:08.150Z,78.80
2019-05-10T02:18:07.785Z,78.80
2019-05-10T02:19:08.274Z,78.80
2019-05-10T02:20:05.160Z,78.80
2019-05-10T02:21:10.401Z,78.70
2019-05-10T02:22:05.387Z,78.70
2019-05-10T02:23:05.530Z,78.70
2019-05-10T02:24:05.639Z,78.80
2019-05-10T02:25:13.470Z,78.70
2019-05-10T02:26:10.225Z,78.70
2019-05-10T02:27:05.568Z,78.70
2019-05-10T02:28:08.276Z,78.70
2019-05-10T02:29:05.367Z,78.60
2019-05-10T02:30:08.143Z,78.60
2019-05-10T02:31:05.104Z,78.60
2019-05-10T02:32:07.797Z,78.60
2019-05-10T02:33:05.767Z,78.60
2019-05-10T02:34:05.834Z,78.60
2019-05-10T02:35:05.984Z,78.70
2019-05-10T02:36:07.638Z,78.70
2019-05-10T02:37:08.235Z,78.70
2019-05-10T02:38:05.266Z,78.70
2019-05-10T02:39:05.489Z,78.70
2019-05-10T02:40:08.180Z,78.80
2019-05-10T02:41:07.622Z,78.80
2019-05-10T02:42:05.556Z,78.80
2019-05-10T02:43:10.799Z,78.90
2019-05-10T02:44:05.745Z,78.90
2019-05-10T02:45:08.328Z,79.00
2019-05-10T02:46:07.909Z,79.10
2019-05-10T02:47:05.949Z,79.10
2019-05-10T02:48:05.117Z,79.10
2019-05-10T02:49:07.742Z,79.20
2019-05-10T02:50:08.338Z,79.20
2019-05-10T02:51:07.974Z,79.20
2019-05-10T02:52:05.109Z,79.10
2019-05-10T02:53:07.706Z,79.20
2019-05-10T02:54:08.283Z,79.20
2019-05-10T02:55:05.340Z,79.20
2019-05-10T02:56:05.504Z,79.20
2019-05-10T02:57:05.579Z,79.30
2019-05-10T02:58:08.223Z,79.30
2019-05-10T02:59:10.449Z,79.30
2019-05-10T03:00:05.479Z,79.30
2019-05-10T03:01:05.720Z,79.40
2019-05-10T03:02:08.391Z,79.50
2019-05-10T03:03:05.335Z,79.50
2019-05-10T03:04:05.289Z,79.40
2019-05-10T03:05:05.534Z,79.50
2019-05-10T03:06:05.741Z,79.50
2019-05-10T03:07:05.977Z,79.50
2019-05-10T03:08:05.116Z,79.50
2019-05-10T03:09:05.238Z,79.50
2019-05-10T03:10:05.387Z,79.60
2019-05-10T03:11:05.511Z,79.60
2019-05-10T03:12:08.124Z,79.60
2019-05-10T03:13:07.542Z,79.60
2019-05-10T03:14:10.558Z,79.70
2019-05-10T03:15:08.016Z,79.70
2019-05-10T03:16:10.032Z,79.80
2019-05-10T03:17:04.995Z,79.80
2019-05-10T03:18:07.590Z,79.80
2019-05-10T03:19:05.537Z,79.80
2019-05-10T03:20:05.654Z,79.80
2019-05-10T03:21:08.418Z,80.00
2019-05-10T03:22:05.411Z,80.00
2019-05-10T03:23:05.561Z,80.00
2019-05-10T03:24:05.627Z,80.00
2019-05-10T03:25:08.203Z,80.00
2019-05-10T03:26:07.722Z,80.00
2019-05-10T03:27:08.294Z,80.00
2019-05-10T03:28:07.829Z,80.00
2019-05-10T03:29:05.748Z,80.00
2019-05-10T03:30:08.504Z,80.10
2019-05-10T03:31:05.532Z,80.10
2019-05-10T03:32:05.774Z,80.10
2019-05-10T03:33:05.822Z,80.10
2019-05-10T03:34:05.903Z,80.20
2019-05-10T03:35:04.992Z,80.20
2019-05-10T03:36:05.143Z,80.30
2019-05-10T03:37:07.924Z,80.30
2019-05-10T03:38:06.079Z,80.30
2019-05-10T03:39:05.214Z,80.30
2019-05-10T03:40:05.288Z,80.40
2019-05-10T03:41:08.029Z,80.30
2019-05-10T03:42:07.578Z,80.30
2019-05-10T03:43:08.191Z,80.30
2019-05-10T03:44:05.154Z,80.30
2019-05-10T03:45:07.997Z,80.40
2019-05-10T03:46:07.478Z,80.40
2019-05-10T03:47:07.903Z,80.40
2019-05-10T03:48:05.976Z,80.40
2019-05-10T03:49:07.807Z,80.40
2019-05-10T03:50:08.588Z,80.60
2019-05-10T03:51:05.814Z,80.60
2019-05-10T03:52:08.282Z,80.60
2019-05-10T03:53:05.373Z,80.60
2019-05-10T03:54:05.921Z,80.60
2019-05-10T03:55:05.025Z,80.60
2019-05-10T03:56:07.633Z,80.70
2019-05-10T03:57:14.746Z,80.80
2019-05-10T03:58:07.671Z,80.80
2019-05-10T03:59:10.776Z,80.80
2019-05-10T04:00:05.830Z,80.80
2019-05-10T04:01:08.616Z,80.70
2019-05-10T04:02:05.792Z,80.80
2019-05-10T04:03:04.960Z,81.00
2019-05-10T04:04:09.923Z,80.90
2019-05-10T04:05:07.563Z,80.90
2019-05-10T04:06:07.972Z,81.00
2019-05-10T04:07:05.861Z,81.10
2019-05-10T04:08:12.539Z,81.10
2019-05-10T04:09:08.097Z,81.10
2019-05-10T04:10:05.090Z,81.10
2019-05-10T04:11:05.275Z,81.10
2019-05-10T04:12:07.828Z,81.10
2019-05-10T04:13:05.726Z,81.10
2019-05-10T04:14:05.900Z,81.00
2019-05-10T04:15:07.473Z,81.00
2019-05-10T04:16:07.961Z,81.00
2019-05-10T04:17:08.569Z,81.10
2019-05-10T04:18:05.628Z,81.20
2019-05-10T04:19:05.830Z,81.30
2019-05-10T04:20:05.080Z,81.40
2019-05-10T04:21:07.606Z,81.40
2019-05-10T04:22:05.504Z,81.30
2019-05-10T04:23:05.641Z,81.40
2019-05-10T04:24:10.743Z,81.40
2019-05-10T04:25:08.785Z,81.50
2019-05-10T04:26:08.319Z,81.50
2019-05-10T04:27:05.338Z,81.50
2019-05-10T04:28:05.635Z,81.50
2019-05-10T04:29:08.277Z,81.50
2019-05-10T04:30:05.227Z,81.50
2019-05-10T04:31:08.017Z,81.70
2019-05-10T04:32:05.051Z,81.70
2019-05-10T04:33:05.166Z,81.60
2019-05-10T04:34:10.352Z,81.60
2019-05-10T04:35:05.273Z,81.60
2019-05-10T04:36:13.250Z,81.90
2019-05-10T04:37:07.771Z,81.80
2019-05-10T04:38:05.917Z,81.80
2019-05-10T04:39:05.226Z,81.80
2019-05-10T04:40:07.711Z,81.80
2019-05-10T04:41:05.713Z,81.80
2019-05-10T04:42:08.339Z,81.80
2019-05-10T04:43:05.307Z,81.70
2019-05-10T04:44:05.367Z,81.80
2019-05-10T04:45:05.583Z,81.80
2019-05-10T04:46:05.696Z,82.00
2019-05-10T04:47:05.787Z,81.90
2019-05-10T04:48:08.441Z,82.00
2019-05-10T04:49:07.878Z,82.10
2019-05-10T04:50:05.857Z,82.10
2019-05-10T04:51:05.117Z,82.10
2019-05-10T04:52:05.144Z,82.10
2019-05-10T04:53:05.371Z,82.00
2019-05-10T04:54:05.695Z,82.20
2019-05-10T04:55:08.362Z,82.20
2019-05-10T04:56:07.859Z,82.20
2019-05-10T04:57:05.928Z,82.30
2019-05-10T04:58:07.568Z,82.40
2019-05-10T04:59:04.946Z,82.30
2019-05-10T05:00:05.024Z,82.40
2019-05-10T05:01:07.694Z,82.30
2019-05-10T05:02:10.668Z,82.30
2019-05-10T05:03:05.481Z,82.30
2019-05-10T05:04:08.235Z,82.30
2019-05-10T05:05:07.707Z,82.30
2019-05-10T05:06:05.660Z,82.30
2019-05-10T05:07:05.728Z,82.20
2019-05-10T05:08:08.291Z,82.30
2019-05-10T05:09:10.534Z,82.30
2019-05-10T05:10:08.071Z,82.30
2019-05-10T05:11:07.535Z,82.30
2019-05-10T05:12:07.156Z,82.20
2019-05-10T05:13:05.267Z,82.30
2019-05-10T05:14:09.817Z,82.30
2019-05-10T05:15:05.926Z,82.30
2019-05-10T05:16:07.563Z,82.20
2019-05-10T05:17:08.137Z,82.20
2019-05-10T05:18:10.132Z,82.20
2019-05-10T05:19:10.290Z,82.30
2019-05-10T05:20:05.187Z,82.30
2019-05-10T05:21:08.191Z,82.20
2019-05-10T05:22:05.239Z,82.20
2019-05-10T05:23:08.050Z,82.40
2019-05-10T05:24:05.098Z,82.40
2019-05-10T05:25:08.158Z,82.40
2019-05-10T05:26:07.703Z,82.40
2019-05-10T05:27:05.763Z,82.40
2019-05-10T05:28:08.667Z,82.50
2019-05-10T05:29:05.844Z,82.50
2019-05-10T05:30:07.534Z,82.50
2019-05-10T05:31:08.026Z,82.50
2019-05-10T05:32:07.459Z,82.50
2019-05-10T05:33:10.471Z,82.50
2019-05-10T05:34:06.744Z,82.50
2019-05-10T05:35:08.346Z,82.50
2019-05-10T05:36:05.295Z,82.50
2019-05-10T05:37:05.425Z,82.50
2019-05-10T05:38:05.393Z,82.60
2019-05-10T05:39:05.500Z,82.80
2019-05-10T05:40:08.135Z,82.90
2019-05-10T05:41:05.072Z,82.90
2019-05-10T05:42:05.208Z,82.90
2019-05-10T05:43:09.799Z,82.90
2019-05-10T05:44:06.004Z,82.90
2019-05-10T05:45:07.665Z,83.00
2019-05-10T05:46:05.549Z,83.00
2019-05-10T05:47:05.750Z,83.00
2019-05-10T05:48:05.876Z,83.00
2019-05-10T05:49:07.491Z,83.00
2019-05-10T05:50:10.511Z,82.90
2019-05-10T05:51:08.317Z,82.80
2019-05-10T05:52:05.406Z,82.80
2019-05-10T05:53:08.084Z,82.80
2019-05-10T05:54:05.373Z,82.80
2019-05-10T05:55:05.657Z,82.60
2019-05-10T05:56:14.588Z,82.60
2019-05-10T05:57:08.394Z,82.60
2019-05-10T05:58:27.133Z,82.60
2019-05-10T05:59:09.146Z,82.50
2019-05-10T06:00:07.960Z,82.90
2019-05-10T06:01:07.701Z,83.40
2019-05-10T06:02:09.551Z,83.50
2019-05-10T06:03:05.732Z,83.90
2019-05-10T06:04:10.643Z,83.70
2019-05-10T06:05:05.516Z,83.40
2019-05-10T06:06:21.411Z,81.90
2019-05-10T06:07:05.261Z,81.80
2019-05-10T06:08:23.257Z,81.30
2019-05-10T06:09:06.614Z,80.30
2019-05-10T06:10:17.441Z,79.00
2019-05-10T06:11:09.373Z,78.50
2019-05-10T06:12:14.254Z,77.40
2019-05-10T06:13:07.884Z,76.90
2019-05-10T06:14:14.275Z,75.90
2019-05-10T06:15:05.549Z,76.00
2019-05-10T06:16:14.476Z,75.20
2019-05-10T06:17:13.479Z,72.60
2019-05-10T06:18:12.044Z,72.60
2019-05-10T06:19:05.163Z,70.90
2019-05-10T06:20:10.437Z,70.10
2019-05-10T06:21:05.486Z,70.10
2019-05-10T06:22:07.326Z,70.10
2019-05-10T06:23:07.387Z,67.80
2019-05-10T06:24:13.684Z,67.10
2019-05-10T06:25:08.478Z,68.00
2019-05-10T06:26:28.291Z,68.20
2019-05-10T06:27:05.524Z,68.20
2019-05-10T06:28:26.766Z,68.10
2019-05-10T06:29:19.841Z,67.30
2019-05-10T06:30:08.478Z,64.60
2019-05-10T06:31:10.359Z,63.20
2019-05-10T06:32:08.030Z,62.50
2019-05-10T06:33:13.490Z,62.30
2019-05-10T06:34:08.187Z,60.70
2019-05-10T06:35:19.596Z,60.40
2019-05-10T06:36:05.706Z,60.50
2019-05-10T06:37:05.813Z,61.00
2019-05-10T06:38:06.163Z,59.80
2019-05-10T06:39:07.887Z,60.30
2019-05-10T06:40:06.019Z,60.20
2019-05-10T06:42:07.505Z,60.40
2019-05-10T06:43:13.242Z,60.40
2019-05-10T06:44:05.598Z,60.70
2019-05-10T06:45:16.278Z,61.70
2019-05-10T06:46:08.060Z,61.80
2019-05-10T06:47:11.159Z,61.80
2019-05-10T06:48:05.310Z,62.10
2019-05-10T06:49:10.940Z,61.90
2019-05-10T06:50:07.751Z,62.70
2019-05-10T06:51:12.238Z,62.70
2019-05-10T06:52:07.878Z,62.40
2019-05-10T06:53:11.320Z,62.40
2019-05-10T06:54:05.630Z,62.60
2019-05-10T06:55:05.856Z,62.80
2019-05-10T06:56:05.044Z,62.90
2019-05-10T06:57:05.210Z,63.00
2019-05-10T06:58:05.298Z,62.40
2019-05-10T06:59:14.165Z,62.10
2019-05-10T07:00:08.249Z,63.00
2019-05-10T07:01:05.592Z,63.70
2019-05-10T07:02:08.331Z,63.50
2019-05-10T07:03:07.859Z,63.50
2019-05-10T07:04:05.860Z,63.60
2019-05-10T07:05:08.484Z,63.60
2019-05-10T07:06:08.150Z,64.10
2019-05-10T07:07:20.273Z,64.20
2019-05-10T07:08:20.276Z,64.20
2019-05-10T07:09:05.727Z,64.40
2019-05-10T07:10:19.249Z,64.40
2019-05-10T07:11:08.599Z,61.20
2019-05-10T07:12:15.679Z,61.20
2019-05-10T07:13:07.089Z,60.90
2019-05-10T07:14:05.479Z,60.70
2019-05-10T07:15:05.992Z,58.60
2019-05-10T07:16:05.291Z,57.20
2019-05-10T07:17:05.491Z,55.60
2019-05-10T07:18:05.818Z,55.60
2019-05-10T07:19:05.924Z,55.20
2019-05-10T07:20:05.020Z,55.20
2019-05-10T07:21:08.714Z,53.90
2019-05-10T07:22:05.877Z,53.10
2019-05-10T07:23:07.822Z,53.20
2019-05-10T07:24:05.145Z,53.40
2019-05-10T07:25:10.418Z,53.90
2019-05-10T07:26:05.419Z,53.90
2019-05-10T07:27:06.202Z,54.30
2019-05-10T07:28:15.601Z,54.90
2019-05-10T07:29:08.092Z,52.80
2019-05-10T07:30:05.253Z,52.80
2019-05-10T07:31:05.357Z,52.10
2019-05-10T07:32:05.651Z,52.50
2019-05-10T07:33:08.457Z,51.90
2019-05-10T07:34:15.550Z,51.40
2019-05-10T07:35:05.165Z,51.50
2019-05-10T07:36:15.437Z,51.60
2019-05-10T07:37:05.389Z,50.40
2019-05-10T07:38:05.573Z,50.50
2019-05-10T07:39:10.744Z,49.90
2019-05-10T07:40:10.934Z,50.00
2019-05-10T07:41:08.513Z,50.00
2019-05-10T07:42:09.058Z,49.90
2019-05-10T07:43:07.943Z,50.50
2019-05-10T07:44:10.491Z,50.40
2019-05-10T07:45:08.294Z,51.00
2019-05-10T07:46:09.172Z,50.90
2019-05-10T07:47:07.876Z,51.20
2019-05-10T07:48:10.286Z,51.00
2019-05-10T07:49:05.141Z,51.30
2019-05-10T07:50:11.581Z,51.30
2019-05-10T07:51:05.763Z,51.30
2019-05-10T07:52:05.784Z,51.40
2019-05-10T07:53:07.680Z,51.30
2019-05-10T07:54:10.695Z,51.50
2019-05-10T07:55:05.910Z,51.60
2019-05-10T07:56:08.534Z,51.60
2019-05-10T07:57:08.255Z,51.80
2019-05-10T07:58:07.863Z,52.00
2019-05-10T07:59:05.955Z,52.00
2019-05-10T08:00:06.563Z,52.30
2019-05-10T08:01:05.669Z,52.50
2019-05-10T08:02:12.664Z,52.80
2019-05-10T08:03:18.885Z,53.00
2019-05-10T08:04:05.034Z,52.80
2019-05-10T08:05:13.681Z,52.10
2019-05-10T08:06:08.718Z,52.70
2019-05-10T08:07:10.504Z,52.80
2019-05-10T08:08:05.724Z,52.90
2019-05-10T08:09:09.732Z,52.90
2019-05-10T08:10:08.380Z,52.90
2019-05-10T08:11:08.969Z,52.30
2019-05-10T08:12:05.798Z,52.30
2019-05-10T08:13:05.010Z,52.30
2019-05-10T08:14:10.851Z,52.40
2019-05-10T08:15:08.945Z,52.60
2019-05-10T08:16:11.202Z,52.70
2019-05-10T08:17:09.008Z,53.40
2019-05-10T08:18:05.153Z,52.80
2019-05-10T08:19:05.398Z,52.20
2019-05-10T08:20:19.859Z,51.80
2019-05-10T08:21:25.568Z,49.80
2019-05-10T08:22:05.050Z,49.20
2019-05-10T08:23:13.031Z,49.40
2019-05-10T08:24:16.576Z,48.00
2019-05-10T08:25:05.835Z,48.00
2019-05-10T08:26:19.686Z,48.10
2019-05-10T08:27:14.945Z,46.50
2019-05-10T08:28:05.868Z,46.30
2019-05-10T08:29:13.317Z,46.10
2019-05-10T08:30:28.382Z,46.20
2019-05-10T08:31:07.552Z,45.60
2019-05-10T08:32:05.624Z,45.50
2019-05-10T08:33:11.867Z,45.50
2019-05-10T08:34:07.941Z,45.40
2019-05-10T08:35:16.807Z,45.40
2019-05-10T08:36:05.991Z,46.00
2019-05-10T08:37:07.822Z,46.70
2019-05-10T08:38:05.841Z,46.70
2019-05-10T08:39:13.633Z,46.80
2019-05-10T08:40:04.996Z,46.90
2019-05-10T08:41:14.235Z,45.90
2019-05-10T08:42:35.349Z,43.90
2019-05-10T08:43:13.777Z,43.70
2019-05-10T08:44:05.399Z,44.30
2019-05-10T08:45:09.206Z,44.00
2019-05-10T08:46:05.277Z,43.50
2019-05-10T08:47:13.416Z,43.00
2019-05-10T08:48:07.500Z,41.80
2019-05-10T08:49:08.178Z,41.50
2019-05-10T08:50:43.802Z,41.40
2019-05-10T08:51:07.880Z,41.40
2019-05-10T08:52:05.086Z,41.00
2019-05-10T08:53:16.201Z,41.20
2019-05-10T08:54:12.506Z,42.20
2019-05-10T08:55:05.829Z,42.20
2019-05-10T08:56:20.580Z,41.30
2019-05-10T08:57:06.176Z,41.70
2019-05-10T08:58:08.057Z,40.50
2019-05-10T08:59:15.713Z,40.50
2019-05-10T09:00:09.300Z,40.90
2019-05-10T09:01:29.313Z,41.00
2019-05-10T09:02:05.270Z,40.60
2019-05-10T09:03:13.795Z,40.80
2019-05-10T09:04:13.710Z,39.50
2019-05-10T09:05:08.623Z,39.10
2019-05-10T09:06:16.573Z,39.10
2019-05-10T09:07:05.119Z,39.40
2019-05-10T09:08:11.491Z,39.30
2019-05-10T09:09:08.652Z,39.50
2019-05-10T09:10:12.539Z,38.90
2019-05-10T09:11:07.382Z,39.00
2019-05-10T09:12:12.039Z,38.90
2019-05-10T09:13:07.829Z,39.70
2019-05-10T09:14:21.140Z,39.70
2019-05-10T09:15:13.030Z,39.70
2019-05-10T09:16:08.368Z,40.10
2019-05-10T09:17:26.770Z,39.20
2019-05-10T09:18:07.853Z,39.10
2019-05-10T09:19:07.532Z,38.40
2019-05-10T09:20:25.472Z,38.40
2019-05-10T09:21:14.663Z,37.90
2019-05-10T09:22:05.130Z,37.80
2019-05-10T09:23:15.032Z,38.20
2019-05-10T09:24:07.050Z,38.50
2019-05-10T09:25:05.174Z,38.70
2019-05-10T09:26:16.158Z,39.00
2019-05-10T09:27:13.125Z,39.60
2019-05-10T09:28:16.598Z,39.60
2019-05-10T09:29:07.639Z,40.40
2019-05-10T09:30:13.924Z,40.40
2019-05-10T09:31:22.534Z,39.50
2019-05-10T09:32:07.033Z,39.40
2019-05-10T09:33:10.577Z,38.90
2019-05-10T09:34:08.103Z,39.10
2019-05-10T09:35:09.382Z,39.10
2019-05-10T09:36:05.563Z,39.80
2019-05-10T09:37:14.130Z,39.80
2019-05-10T09:38:07.766Z,38.70
2019-05-10T09:39:15.214Z,38.70
2019-05-10T09:40:13.033Z,38.80
2019-05-10T09:41:05.536Z,38.50
2019-05-10T09:42:18.849Z,38.70
2019-05-10T09:43:14.795Z,39.30
2019-05-10T09:44:05.885Z,39.30
2019-05-10T09:45:12.154Z,40.70
2019-05-10T09:46:05.822Z,40.70
2019-05-10T09:47:08.625Z,39.80
2019-05-10T09:48:05.725Z,39.80
2019-05-10T09:49:18.464Z,39.00
2019-05-10T09:50:05.866Z,39.10
2019-05-10T09:51:05.945Z,39.30
2019-05-10T09:52:18.107Z,38.40
2019-05-10T09:53:10.448Z,37.40
2019-05-10T09:54:10.799Z,37.10
2019-05-10T09:55:14.906Z,37.10
2019-05-10T09:56:08.301Z,36.10
2019-05-10T09:57:10.514Z,35.90
2019-05-10T09:58:05.636Z,35.90
2019-05-10T09:59:08.935Z,36.50
2019-05-10T10:00:07.811Z,36.00
2019-05-10T10:01:21.582Z,36.00
2019-05-10T10:02:18.286Z,35.10
2019-05-10T10:03:08.765Z,35.60
2019-05-10T10:04:05.882Z,35.60
2019-05-10T10:05:07.726Z,35.90
2019-05-10T10:06:11.095Z,36.40
2019-05-10T10:07:10.591Z,36.90
2019-05-10T10:08:10.981Z,36.80
2019-05-10T10:09:09.734Z,37.10
2019-05-10T10:10:07.655Z,37.50
2019-05-10T10:11:16.296Z,37.40
2019-05-10T10:12:07.319Z,37.10
2019-05-10T10:13:14.254Z,36.90
2019-05-10T10:14:10.578Z,37.70
2019-05-10T10:15:15.389Z,37.40
2019-05-10T10:16:14.837Z,36.80
2019-05-10T10:17:08.672Z,36.30
2019-05-10T10:18:19.067Z,36.20
2019-05-10T10:19:07.465Z,36.20
2019-05-10T10:20:08.874Z,36.20
2019-05-10T10:21:05.970Z,36.20
2019-05-10T10:22:10.904Z,35.90
2019-05-10T10:23:07.746Z,36.10
2019-05-10T10:24:17.134Z,36.00
2019-05-10T10:25:07.848Z,36.50
2019-05-10T10:26:07.562Z,36.70
2019-05-10T10:27:07.823Z,37.30
2019-05-10T10:28:16.837Z,36.90
2019-05-10T10:29:08.384Z,36.60
2019-05-10T10:30:12.168Z,36.70
2019-05-10T10:31:08.426Z,36.90
2019-05-10T10:32:08.228Z,37.30
2019-05-10T10:33:11.157Z,37.20
2019-05-10T10:34:07.848Z,36.40
2019-05-10T10:35:13.043Z,36.50
2019-05-10T10:36:10.926Z,36.60
2019-05-10T10:37:07.619Z,36.60
2019-05-10T10:38:08.702Z,36.50
2019-05-10T10:39:07.883Z,36.50
2019-05-10T10:40:09.073Z,36.10
2019-05-10T10:41:05.259Z,36.50
2019-05-10T10:42:13.283Z,36.20
2019-05-10T10:43:10.549Z,35.70
2019-05-10T10:44:07.756Z,35.70
2019-05-10T10:45:07.637Z,35.80
2019-05-10T10:46:12.783Z,36.20
2019-05-10T10:47:08.549Z,36.40
2019-05-10T10:48:13.103Z,36.70
2019-05-10T10:49:06.067Z,36.60
2019-05-10T10:50:13.565Z,36.90
2019-05-10T10:51:07.783Z,37.40
2019-05-10T10:52:10.939Z,37.30
2019-05-10T10:53:08.352Z,37.50
2019-05-10T10:54:07.770Z,37.80
2019-05-10T10:55:13.465Z,38.70
2019-05-10T10:56:08.009Z,38.70
2019-05-10T10:57:05.283Z,39.20
2019-05-10T10:58:07.863Z,39.60
2019-05-10T10:59:07.826Z,40.00
2019-05-10T11:00:08.052Z,40.60
2019-05-10T11:01:21.126Z,41.40
2019-05-10T11:02:33.534Z,41.60
2019-05-10T11:03:05.263Z,41.90
2019-05-10T11:04:09.802Z,42.40
2019-05-10T11:05:07.503Z,43.50
2019-05-10T11:06:05.612Z,43.50
2019-05-10T11:07:11.308Z,43.90
2019-05-10T11:08:05.488Z,44.10
2019-05-10T11:09:05.683Z,44.70
2019-05-10T11:10:22.092Z,44.20
2019-05-10T11:11:07.865Z,43.60
2019-05-10T11:12:08.454Z,43.30
2019-05-10T11:13:18.936Z,43.30
2019-05-10T11:14:07.932Z,43.00
2019-05-10T11:15:05.859Z,42.50
2019-05-10T11:16:15.387Z,41.90
2019-05-10T11:17:05.591Z,41.90
2019-05-10T11:18:05.727Z,41.60
2019-05-10T11:19:15.421Z,41.10
2019-05-10T11:20:11.470Z,40.10
2019-05-10T11:21:05.737Z,39.90
2019-05-10T11:22:10.950Z,39.10
2019-05-10T11:23:05.199Z,38.90
2019-05-10T11:24:18.319Z,38.70
2019-05-10T11:25:12.809Z,38.90
2019-05-10T11:26:11.261Z,39.20
2019-05-10T11:27:12.862Z,39.20
2019-05-10T11:28:11.899Z,39.30
2019-05-10T11:29:08.633Z,38.80
2019-05-10T11:30:08.400Z,38.50
2019-05-10T11:31:05.427Z,38.50
2019-05-10T11:32:16.845Z,38.70
2019-05-10T11:33:05.468Z,39.00
2019-05-10T11:34:08.281Z,39.70
2019-05-10T11:35:18.845Z,39.90
2019-05-10T11:36:11.324Z,39.90
2019-05-10T11:37:08.065Z,40.10
2019-05-10T11:38:15.958Z,40.10
2019-05-10T11:39:06.445Z,40.20
2019-05-10T11:40:08.304Z,40.10
2019-05-10T11:41:12.887Z,40.10
2019-05-10T11:42:07.972Z,40.50
2019-05-10T11:43:07.572Z,40.50
2019-05-10T11:44:15.948Z,40.50
2019-05-10T11:45:05.094Z,40.40
2019-05-10T11:46:05.318Z,40.50
2019-05-10T11:47:26.621Z,40.40
2019-05-10T11:48:05.162Z,40.30
2019-05-10T11:49:11.089Z,40.70
2019-05-10T11:50:06.931Z,40.70
2019-05-10T11:52:05.410Z,40.20
2019-05-10T11:53:12.373Z,40.70
2019-05-10T11:54:05.420Z,40.80
2019-05-10T11:55:08.041Z,40.30
2019-05-10T11:55:12.611Z,40.80
2019-05-10T11:56:13.924Z,40.30
2019-05-10T11:59:06.492Z,40.60
2019-05-10T12:00:24.243Z,40.30
2019-05-10T12:00:28.296Z,40.90
2019-05-10T12:02:24.324Z,41.60
2019-05-10T12:03:18.858Z,41.20
2019-05-10T12:04:28.832Z,41.30
2019-05-10T12:05:16.927Z,41.70
2019-05-10T12:05:20.384Z,41.00
2019-05-10T12:07:12.787Z,41.10
2019-05-10T12:08:08.212Z,41.00
2019-05-10T12:09:05.591Z,41.30
2019-05-10T12:10:21.813Z,41.50
2019-05-10T12:11:27.456Z,41.90
2019-05-10T12:12:05.316Z,42.10
2019-05-10T12:14:08.465Z,43.30
2019-05-10T12:15:08.109Z,43.40
2019-05-10T12:15:13.898Z,41.90
2019-05-10T12:16:05.223Z,43.50
2019-05-10T12:17:06.883Z,43.30
2019-05-10T12:18:06.019Z,43.50
2019-05-10T12:19:20.634Z,43.30
2019-05-10T12:20:07.470Z,42.70
2019-05-10T12:21:11.445Z,42.80
2019-05-10T12:22:16.178Z,43.20
2019-05-10T12:25:35.381Z,43.20
2019-05-10T12:25:43.562Z,43.30
2019-05-10T12:26:15.236Z,40.30
2019-05-10T12:27:10.704Z,43.90
2019-05-10T12:27:26.690Z,43.90
2019-05-10T12:28:06.078Z,44.20
2019-05-10T12:29:16.890Z,43.10
2019-05-10T12:30:07.759Z,43.00
2019-05-10T12:31:16.868Z,42.90
2019-05-10T12:32:11.008Z,43.00
2019-05-10T12:33:23.385Z,43.00
2019-05-10T12:34:14.625Z,43.20
2019-05-10T12:35:05.876Z,43.30
2019-05-10T12:36:25.544Z,43.20
2019-05-10T12:37:08.822Z,43.20
2019-05-10T12:38:06.050Z,42.60
2019-05-10T12:39:05.525Z,42.50
2019-05-10T12:40:15.009Z,42.70
2019-05-10T12:41:05.859Z,42.30
2019-05-10T12:42:07.771Z,41.70
2019-05-10T12:43:11.191Z,41.70
2019-05-10T12:44:07.877Z,41.70
2019-05-10T12:45:06.166Z,41.70
2019-05-10T12:46:10.326Z,40.40
2019-05-10T12:47:05.746Z,40.40
2019-05-10T12:48:08.718Z,40.30
2019-05-10T12:49:05.806Z,40.30
2019-05-10T12:50:08.507Z,40.90
2019-05-10T12:51:15.920Z,40.80
2019-05-10T12:52:13.989Z,41.10
2019-05-10T12:53:18.428Z,41.30
2019-05-10T12:54:05.947Z,41.40
2019-05-10T12:55:05.040Z,41.40